<?xml version='1.0' encoding='UTF-8'?><gpx version="1.1" creator="JPX - https://github.com/jenetics/jpx" xmlns="http://www.topografix.com/GPX/1/1"><trk><trkseg><trkpt lat="46.3726575" lon="13.1688841"><ele>990.9999999999999</ele><time>2026-04-12T13:10:36.546Z</time></trkpt><trkpt lat="46.372721" lon="13.1688766"><ele>991.0</ele><time>2026-04-12T13:10:42.546Z</time></trkpt><trkpt lat="46.372787" lon="13.1688658"><ele>991.0</ele><time>2026-04-12T13:10:51.546Z</time></trkpt><trkpt lat="46.3729192" lon="13.1687898"><ele>991.0</ele><time>2026-04-12T13:11:00.546Z</time></trkpt><trkpt lat="46.3729693" lon="13.1687205"><ele>990.9999999999999</ele><time>2026-04-12T13:11:05.547Z</time></trkpt><trkpt lat="46.3730172" lon="13.1686569"><ele>991.0</ele><time>2026-04-12T13:11:12.546Z</time></trkpt><trkpt lat="46.3730628" lon="13.1684795"><ele>990.1999999999999</ele><time>2026-04-12T13:11:26.55Z</time></trkpt><trkpt lat="46.3731081" lon="13.1684004"><ele>989.3999999999999</ele><time>2026-04-12T13:11:31.547Z</time></trkpt><trkpt lat="46.3731413" lon="13.1683116"><ele>988.6</ele><time>2026-04-12T13:11:37.548Z</time></trkpt><trkpt lat="46.3731617" lon="13.1681176"><ele>987.8</ele><time>2026-04-12T13:11:52.55Z</time></trkpt><trkpt lat="46.3732008" lon="13.16803"><ele>987.0</ele><time>2026-04-12T13:12:00.548Z</time></trkpt><trkpt lat="46.3732429" lon="13.1678382"><ele>987.0</ele><time>2026-04-12T13:12:13.548Z</time></trkpt><trkpt lat="46.3732545" lon="13.1677375"><ele>987.0</ele><time>2026-04-12T13:12:21.548Z</time></trkpt><trkpt lat="46.37332" lon="13.1675868"><ele>987.0</ele><time>2026-04-12T13:12:37.548Z</time></trkpt><trkpt lat="46.373349" lon="13.1675049"><ele>987.0</ele><time>2026-04-12T13:12:48.549Z</time></trkpt><trkpt lat="46.3734788" lon="13.1674501"><ele>987.0</ele><time>2026-04-12T13:13:09.548Z</time></trkpt><trkpt lat="46.3736046" lon="13.1673675"><ele>980.75</ele><time>2026-04-12T13:13:19.55Z</time></trkpt><trkpt lat="46.3736577" lon="13.1673052"><ele>974.5</ele><time>2026-04-12T13:13:23.547Z</time></trkpt><trkpt lat="46.3737106" lon="13.1672436"><ele>968.25</ele><time>2026-04-12T13:13:27.548Z</time></trkpt><trkpt lat="46.3737638" lon="13.16719"><ele>962.0</ele><time>2026-04-12T13:13:31.547Z</time></trkpt><trkpt lat="46.3734088" lon="13.1668256"><ele>962.0</ele><time>2026-04-12T13:16:49.546Z</time></trkpt><trkpt lat="46.3733621" lon="13.1667411"><ele>962.0</ele><time>2026-04-12T13:16:53.546Z</time></trkpt><trkpt lat="46.3733307" lon="13.1666537"><ele>962.0</ele><time>2026-04-12T13:16:58.546Z</time></trkpt><trkpt lat="46.372908" lon="13.1666184"><ele>957.0</ele><time>2026-04-12T13:19:03.935Z</time></trkpt><trkpt lat="46.3728447" lon="13.1666225"><ele>952.0</ele><time>2026-04-12T13:19:13.547Z</time></trkpt><trkpt lat="46.3727774" lon="13.16665"><ele>947.0</ele><time>2026-04-12T13:19:18.546Z</time></trkpt><trkpt lat="46.3725019" lon="13.1667586"><ele>942.0</ele><time>2026-04-12T13:20:23.206Z</time></trkpt><trkpt lat="46.3724145" lon="13.1667726"><ele>922.0</ele><time>2026-04-12T13:20:26.546Z</time></trkpt><trkpt lat="46.3725536" lon="13.165708"><ele>919.3333333333333</ele><time>2026-04-12T13:28:02.611Z</time></trkpt><trkpt lat="46.3726092" lon="13.1656417"><ele>916.6666666666667</ele><time>2026-04-12T13:28:03.612Z</time></trkpt><trkpt lat="46.3726714" lon="13.1655975"><ele>914.0</ele><time>2026-04-12T13:28:09.546Z</time></trkpt><trkpt lat="46.3737259" lon="13.1634305"><ele>833.0</ele><time>2026-04-12T13:39:00.546Z</time></trkpt><trkpt lat="46.3740944" lon="13.1627547"><ele>833.0</ele><time>2026-04-12T13:42:24.546Z</time></trkpt><trkpt lat="46.3741265" lon="13.1626682"><ele>833.0</ele><time>2026-04-12T13:42:47.547Z</time></trkpt><trkpt lat="46.3742094" lon="13.1626412"><ele>833.0</ele><time>2026-04-12T13:42:54.546Z</time></trkpt><trkpt lat="46.3742696" lon="13.1626013"><ele>833.0</ele><time>2026-04-12T13:43:03.547Z</time></trkpt><trkpt lat="46.374277" lon="13.1625095"><ele>833.0</ele><time>2026-04-12T13:43:16.546Z</time></trkpt><trkpt lat="46.3752962" lon="13.1605118"><ele>824.0000000000001</ele><time>2026-04-12T13:51:54.876Z</time></trkpt><trkpt lat="46.3753566" lon="13.1604782"><ele>815.0</ele><time>2026-04-12T13:52:16.545Z</time></trkpt><trkpt lat="46.3753881" lon="13.1603887"><ele>806.0</ele><time>2026-04-12T13:52:50.546Z</time></trkpt><trkpt lat="46.3753974" lon="13.1602888"><ele>797.0</ele><time>2026-04-12T13:52:55.547Z</time></trkpt><trkpt lat="46.3754262" lon="13.1601889"><ele>788.0000000000001</ele><time>2026-04-12T13:53:09.548Z</time></trkpt><trkpt lat="46.3754845" lon="13.1601509"><ele>779.0</ele><time>2026-04-12T13:53:17.547Z</time></trkpt><trkpt lat="46.3756099" lon="13.160142"><ele>779.0000000000001</ele><time>2026-04-12T13:54:15.546Z</time></trkpt><trkpt lat="46.3756353" lon="13.1600554"><ele>779.0</ele><time>2026-04-12T13:54:19.546Z</time></trkpt><trkpt lat="46.3756904" lon="13.1600044"><ele>779.0</ele><time>2026-04-12T13:54:32.547Z</time></trkpt><trkpt lat="46.3757386" lon="13.1599443"><ele>779.0</ele><time>2026-04-12T13:54:45.546Z</time></trkpt><trkpt lat="46.3757985" lon="13.1599029"><ele>779.0000000000001</ele><time>2026-04-12T13:54:58.547Z</time></trkpt><trkpt lat="46.3758522" lon="13.1596798"><ele>779.0</ele><time>2026-04-12T13:56:54.432Z</time></trkpt><trkpt lat="46.3759061" lon="13.1596302"><ele>747.0</ele><time>2026-04-12T13:57:06.546Z</time></trkpt><trkpt lat="46.3760416" lon="13.1596173"><ele>747.0</ele><time>2026-04-12T13:59:58.546Z</time></trkpt></trkseg></trk></gpx>